»·PEaware :: QXE2811 KMFR-KPDX

QXE2811 :: KMFR-KPDX

FLIGHT INFORMATION

Flight Status: Arrived
Operator:
Horizon Air
More flights by this operator :: More flights under this callsign
Pilot: Jack B. (5846)
Aircraft: DEHAVILLAND DASH 8 400
(DH8D)
More flights by this aircraft type
Origin: KMFR Rogue Valley Intl-Medford
United States
Destination: KPDX Portland Intl
United States
More flights between these airports :: More routes between these airports
Route: JKSN1 OED MOXEE PORTL TMBRS2
File this flight plan on PilotEdge
Remarks:
Altitude:
(Current/Filed)
220ft
Speed:
(Current/Filed)
320kts
Departed: 14-Jun-20 02:26 PM
Arrived: 14-Jun-20 03:11 PM
Distance/Time
Traveled:
193nm/0:45
Distance/Time
To Go:
Arrived

Flight Plot

Page will automatically refresh every two minutes.

Flight plan parsing failed; only flown route is shown


Map Options




Map Legend


Flown Route
Filed Route
Departure Airport
Arrival Airport
Navaid (VOR, NDB)
Fix

Horizontal Profiles

Position Reports

Time Latitude Longitude Heading Altitude Ground
Speed
14-Jun-20 14:12 42.368536 -122.873130 0 1341ft 0kts
14-Jun-20 14:13 42.368536 -122.873130 0 1341ft 0kts
14-Jun-20 14:14 42.368536 -122.873130 0 1341ft 0kts
14-Jun-20 14:15 42.368536 -122.873130 0 1341ft 0kts
14-Jun-20 14:16 42.368536 -122.873130 0 1341ft 0kts
14-Jun-20 14:17 42.368536 -122.873130 0 1341ft 0kts
14-Jun-20 14:18 42.368536 -122.873130 0 1341ft 0kts
14-Jun-20 14:19 42.368536 -122.873130 0 1341ft 0kts
14-Jun-20 14:20 42.368572 -122.873131 358 1341ft 0kts
14-Jun-20 14:21 42.369658 -122.872813 337 1341ft 15kts
14-Jun-20 14:22 42.372007 -122.873241 339 1341ft 19kts
14-Jun-20 14:23 42.377774 -122.876307 339 1341ft 21kts
14-Jun-20 14:24 42.383073 -122.879157 338 1341ft 20kts
14-Jun-20 14:25 42.383699 -122.877859 157 1341ft 72kts
14-Jun-20 14:26 42.349034 -122.870377 214 2990ft 149kts
14-Jun-20 14:27 42.362227 -122.915046 336 4497ft 191kts
14-Jun-20 14:28 42.414622 -122.932168 12 6627ft 215kts
14-Jun-20 14:29 42.476017 -122.914298 7 8636ft 240kts
14-Jun-20 14:30 42.546714 -122.906898 1 10366ft 267kts
14-Jun-20 14:32 42.626967 -122.899372 1 11630ft 300kts
14-Jun-20 14:33 42.705987 -122.891938 0 13277ft 308kts
14-Jun-20 14:34 42.792495 -122.883814 359 14995ft 315kts
14-Jun-20 14:35 42.880770 -122.875512 359 16489ft 321kts
14-Jun-20 14:36 42.970609 -122.867019 358 17730ft 328kts
14-Jun-20 14:37 43.062227 -122.858351 357 18820ft 334kts
14-Jun-20 14:38 43.155227 -122.849537 356 19802ft 337kts
14-Jun-20 14:39 43.248779 -122.840629 356 20633ft 340kts
14-Jun-20 14:40 43.343481 -122.831586 356 21264ft 342kts
14-Jun-20 14:41 43.438555 -122.822475 355 21739ft 344kts
14-Jun-20 14:42 43.534256 -122.813281 355 22067ft 347kts
14-Jun-20 14:43 43.630584 -122.803996 356 22089ft 354kts
14-Jun-20 14:44 43.729514 -122.794409 356 22099ft 357kts
14-Jun-20 14:45 43.828564 -122.784785 356 22098ft 359kts
14-Jun-20 14:46 43.914331 -122.776428 356 22098ft 359kts
14-Jun-20 14:46 43.997359 -122.768315 356 22098ft 360kts
14-Jun-20 14:48 44.113509 -122.756929 356 22098ft 360kts
14-Jun-20 14:49 44.213272 -122.747057 356 22098ft 360kts
14-Jun-20 14:49 44.296256 -122.738880 356 22098ft 360kts
14-Jun-20 14:51 44.412480 -122.727404 356 22098ft 360kts
14-Jun-20 14:52 44.510398 -122.717722 356 21597ft 363kts
14-Jun-20 14:52 44.592642 -122.709568 357 20357ft 361kts
14-Jun-20 14:54 44.708732 -122.697871 357 18390ft 353kts
14-Jun-20 14:54 44.789159 -122.689810 358 16385ft 344kts
14-Jun-20 14:55 44.880452 -122.680591 359 14657ft 319kts
14-Jun-20 14:56 44.966797 -122.671909 0 12946ft 309kts
14-Jun-20 14:57 45.051537 -122.663293 1 11245ft 302kts
14-Jun-20 14:58 45.133930 -122.654892 1 9545ft 295kts
14-Jun-20 14:59 45.214081 -122.646697 1 8100ft 280kts
14-Jun-20 15:00 45.285211 -122.663363 337 7010ft 248kts
14-Jun-20 15:01 45.349201 -122.697854 336 6998ft 250kts
14-Jun-20 15:02 45.414664 -122.733703 336 6022ft 243kts
14-Jun-20 15:03 45.476868 -122.767928 336 5000ft 227kts
14-Jun-20 15:04 45.535468 -122.800210 337 4947ft 227kts
14-Jun-20 15:05 45.593546 -122.827942 5 3757ft 219kts
14-Jun-20 15:06 45.639915 -122.784080 83 2528ft 203kts
14-Jun-20 15:07 45.630448 -122.714570 115 1784ft 154kts
14-Jun-20 15:08 45.611231 -122.662736 118 639ft 135kts
14-Jun-20 15:09 45.592949 -122.615798 118 37ft 120kts
14-Jun-20 15:10 45.586610 -122.597236 31 36ft 12kts
14-Jun-20 15:11 45.586976 -122.595107 120 36ft 16kts
14-Jun-20 15:12 45.586454 -122.592804 56 36ft 0kts
14-Jun-20 15:13 45.586454 -122.592804 56 36ft 0kts
14-Jun-20 15:14 45.586454 -122.592804 56 36ft 0kts

Navigation Log

Ident Type
Flight plan parsing failed, navigation log unavailable